URKZ AUTO 032150Z 17005MPS 10KM 11/07 Q1016 RMK QFE759